createdAt,value
2022-07-30T00:01:19.911Z,17.35
2022-07-30T00:04:05.644Z,17.33
2022-07-30T00:06:51.194Z,17.30
2022-07-30T00:09:36.611Z,17.27
2022-07-30T00:12:22.425Z,17.26
2022-07-30T00:15:08.610Z,17.24
2022-07-30T00:17:54.088Z,17.21
2022-07-30T00:20:40.676Z,17.21
2022-07-30T00:23:29.742Z,17.20
2022-07-30T00:26:15.135Z,17.21
2022-07-30T00:29:01.817Z,17.20
2022-07-30T00:31:47.624Z,17.21
2022-07-30T00:34:33.204Z,17.22
2022-07-30T00:37:18.954Z,17.23
2022-07-30T00:40:05.799Z,17.25
2022-07-30T00:42:51.222Z,17.25
2022-07-30T00:45:37.587Z,17.25
2022-07-30T00:48:23.382Z,17.26
2022-07-30T00:51:10.396Z,17.25
2022-07-30T00:53:55.759Z,17.24
2022-07-30T00:56:41.959Z,17.23
2022-07-30T00:59:30.170Z,17.21
2022-07-30T01:02:15.969Z,17.21
2022-07-30T01:05:01.985Z,17.22
2022-07-30T01:07:47.467Z,17.21
2022-07-30T01:10:33.168Z,17.21
2022-07-30T01:13:18.917Z,17.22
2022-07-30T01:16:05.064Z,17.21
2022-07-30T01:19:11.049Z,17.21
2022-07-30T01:22:20.135Z,17.19
2022-07-30T01:25:16.328Z,17.19
2022-07-30T01:28:12.421Z,17.18
2022-07-30T01:30:59.218Z,17.15
2022-07-30T01:33:48.450Z,17.10
2022-07-30T01:36:34.568Z,17.01
2022-07-30T01:39:21.124Z,16.92
2022-07-30T01:42:09.349Z,16.86
2022-07-30T01:44:56.356Z,16.83
2022-07-30T01:47:43.910Z,16.78
2022-07-30T01:50:31.847Z,16.76
2022-07-30T01:53:21.203Z,16.73
2022-07-30T01:56:10.832Z,16.67
2022-07-30T01:59:00.172Z,16.65
2022-07-30T02:01:46.902Z,16.63
2022-07-30T02:04:32.524Z,16.59
2022-07-30T02:07:34.520Z,16.54
2022-07-30T02:10:31.562Z,16.53
2022-07-30T02:13:23.162Z,16.51
2022-07-30T02:16:18.112Z,16.49
2022-07-30T02:19:13.971Z,16.47
2022-07-30T02:22:15.262Z,16.39
2022-07-30T02:25:03.305Z,16.36
2022-07-30T02:27:58.414Z,16.30
2022-07-30T02:30:58.150Z,16.27
2022-07-30T02:33:48.672Z,16.26
2022-07-30T02:36:37.231Z,16.24
2022-07-30T02:39:25.826Z,16.23
2022-07-30T02:42:15.401Z,16.21
2022-07-30T02:45:02.016Z,16.18
2022-07-30T02:47:52.406Z,16.18
2022-07-30T02:50:40.029Z,16.18
2022-07-30T02:53:28.266Z,16.18
2022-07-30T02:56:18.665Z,16.16
2022-07-30T02:59:06.172Z,16.13
2022-07-30T03:01:52.114Z,16.12
2022-07-30T03:04:39.594Z,16.08
2022-07-30T03:07:27.346Z,16.09
2022-07-30T03:10:14.247Z,16.08
2022-07-30T03:13:01.631Z,16.07
2022-07-30T03:15:50.199Z,16.03
2022-07-30T03:18:37.766Z,16.03
2022-07-30T03:21:26.939Z,16.02
2022-07-30T03:24:14.777Z,16.03
2022-07-30T03:27:03.926Z,16.02
2022-07-30T03:29:54.313Z,16.01
2022-07-30T03:32:40.973Z,15.99
2022-07-30T03:35:31.195Z,15.99
2022-07-30T03:38:20.079Z,15.98
2022-07-30T03:41:07.772Z,15.98
2022-07-30T03:43:53.941Z,15.98
2022-07-30T03:46:42.060Z,15.97
2022-07-30T03:49:29.509Z,15.97
2022-07-30T03:52:15.418Z,16.00
2022-07-30T03:55:02.776Z,15.98
2022-07-30T03:57:57.460Z,15.97
2022-07-30T04:00:49.734Z,15.97
2022-07-30T04:03:35.827Z,15.96
2022-07-30T04:06:24.059Z,15.95
2022-07-30T04:09:11.484Z,15.94
2022-07-30T04:11:59.290Z,15.91
2022-07-30T04:14:53.511Z,15.89
2022-07-30T04:17:45.288Z,15.88
2022-07-30T04:20:40.165Z,15.83
2022-07-30T04:23:26.317Z,15.83
2022-07-30T04:26:13.271Z,15.81
2022-07-30T04:29:01.346Z,15.80
2022-07-30T04:31:47.872Z,15.78
2022-07-30T04:34:54.841Z,15.78
2022-07-30T04:38:02.714Z,15.78
2022-07-30T04:40:48.880Z,15.79
2022-07-30T04:43:34.545Z,15.80
2022-07-30T04:46:20.472Z,15.80
2022-07-30T04:49:13.069Z,15.82
2022-07-30T04:52:00.187Z,15.83
2022-07-30T04:55:03.035Z,15.85
2022-07-30T04:57:50.651Z,15.87
2022-07-30T05:00:41.206Z,15.88
2022-07-30T05:03:32.414Z,15.91
2022-07-30T05:06:18.023Z,15.92
2022-07-30T05:09:04.508Z,15.94
2022-07-30T05:11:53.201Z,15.95
2022-07-30T05:14:39.028Z,15.97
2022-07-30T05:17:24.359Z,16.01
2022-07-30T05:20:10.279Z,16.02
2022-07-30T05:23:23.469Z,16.03
2022-07-30T05:26:35.166Z,16.05
2022-07-30T05:29:21.720Z,16.08
2022-07-30T05:32:13.608Z,16.12
2022-07-30T05:35:01.060Z,16.12
2022-07-30T05:37:47.895Z,16.13
2022-07-30T05:40:33.614Z,16.15
2022-07-30T05:43:42.161Z,16.18
2022-07-30T05:46:28.418Z,16.19
2022-07-30T05:49:15.744Z,16.20
2022-07-30T05:52:01.522Z,16.21
2022-07-30T05:54:47.434Z,16.23
2022-07-30T05:58:11.366Z,16.24
2022-07-30T06:00:56.735Z,16.27
2022-07-30T06:03:46.016Z,16.29
2022-07-30T06:06:53.987Z,16.32
2022-07-30T06:09:41.300Z,16.34
2022-07-30T06:12:31.117Z,16.37
2022-07-30T06:15:20.546Z,16.36
2022-07-30T06:18:11.877Z,16.36
2022-07-30T06:21:08.695Z,16.34
2022-07-30T06:24:14.802Z,16.35
2022-07-30T06:27:09.694Z,16.36
2022-07-30T06:29:55.029Z,16.35
2022-07-30T06:32:40.366Z,16.38
2022-07-30T06:35:26.253Z,16.38
2022-07-30T06:38:11.604Z,16.39
2022-07-30T06:41:10.981Z,16.38
2022-07-30T06:44:22.945Z,16.37
2022-07-30T06:47:29.274Z,16.35
2022-07-30T06:50:18.898Z,16.31
2022-07-30T06:53:04.669Z,16.27
2022-07-30T06:56:10.024Z,16.26
2022-07-30T06:59:05.505Z,16.22
2022-07-30T07:02:09.887Z,16.18
2022-07-30T07:05:14.123Z,16.18
2022-07-30T07:08:04.202Z,16.14
2022-07-30T07:10:54.086Z,16.14
2022-07-30T07:13:48.958Z,16.13
2022-07-30T07:16:42.823Z,16.16
2022-07-30T07:20:00.823Z,16.20
2022-07-30T07:22:52.884Z,16.22
2022-07-30T07:25:39.020Z,16.23
2022-07-30T07:28:29.986Z,16.22
2022-07-30T07:32:05.499Z,16.25
2022-07-30T07:34:26.573Z,16.21
2022-07-30T07:37:12.996Z,16.23
2022-07-30T07:39:58.563Z,16.24
2022-07-30T07:42:45.742Z,16.25
2022-07-30T07:45:32.755Z,16.28
2022-07-30T07:48:23.328Z,16.31
2022-07-30T07:51:14.416Z,16.36
2022-07-30T07:54:19.803Z,16.37
2022-07-30T07:57:10.297Z,16.39
2022-07-30T07:59:59.520Z,16.41
2022-07-30T08:02:48.764Z,16.47
2022-07-30T08:05:56.979Z,16.49
2022-07-30T08:09:03.662Z,16.51
2022-07-30T08:12:16.267Z,16.54
2022-07-30T08:15:25.256Z,16.50
2022-07-30T08:18:23.104Z,16.54
2022-07-30T08:21:34.685Z,16.53
2022-07-30T08:24:22.791Z,16.54
2022-07-30T08:27:08.645Z,16.53
2022-07-30T08:30:52.263Z,-146.56
2022-07-30T08:34:36.660Z,-146.56
2022-07-30T08:38:21.213Z,-146.56
2022-07-30T08:42:06.749Z,-146.56
2022-07-30T08:45:52.291Z,-146.56
2022-07-30T08:50:01.762Z,-146.56
2022-07-30T08:53:49.782Z,-146.56
2022-07-30T08:57:34.754Z,-146.56
2022-07-30T09:01:22.234Z,-146.56
2022-07-30T09:05:06.692Z,-146.56
2022-07-30T09:08:50.554Z,-146.56
2022-07-30T09:12:36.203Z,-146.56
2022-07-30T09:16:22.381Z,-146.56
2022-07-30T09:19:28.027Z,16.53
2022-07-30T09:22:46.469Z,16.53
2022-07-30T09:26:57.424Z,-146.56
2022-07-30T09:31:14.551Z,-146.56
2022-07-30T09:34:38.882Z,17.87
2022-07-30T09:37:25.017Z,17.78
2022-07-30T09:40:39.057Z,17.78
2022-07-30T09:44:42.087Z,-146.56
2022-07-30T09:47:53.117Z,17.78
2022-07-30T09:50:50.164Z,18.08
2022-07-30T09:53:53.086Z,18.08
2022-07-30T09:57:03.731Z,18.08
2022-07-30T10:00:01.822Z,18.08
2022-07-30T10:03:33.507Z,18.08
2022-07-30T10:07:01.703Z,18.57
2022-07-30T10:10:00.465Z,18.67
2022-07-30T10:12:51.116Z,18.72
2022-07-30T10:15:37.278Z,18.65
2022-07-30T10:18:25.570Z,-146.56
2022-07-30T10:21:16.773Z,18.80
2022-07-30T10:24:31.272Z,19.01
2022-07-30T10:27:51.644Z,19.10
2022-07-30T10:30:50.219Z,19.19
2022-07-30T10:33:40.315Z,19.24
2022-07-30T10:36:27.221Z,19.34
2022-07-30T10:39:17.690Z,19.24
2022-07-30T10:42:47.805Z,19.32
2022-07-30T10:45:55.131Z,19.42
2022-07-30T10:48:40.806Z,19.29
2022-07-30T10:51:50.240Z,19.25
2022-07-30T10:54:42.208Z,19.12
2022-07-30T10:57:32.341Z,19.29
2022-07-30T11:00:18.852Z,19.44
2022-07-30T11:03:40.617Z,19.55
2022-07-30T11:06:30.858Z,19.52
2022-07-30T11:09:40.719Z,19.49
2022-07-30T11:12:41.921Z,19.44
2022-07-30T11:15:59.947Z,19.55
2022-07-30T11:19:51.935Z,19.55
2022-07-30T11:22:26.130Z,19.60
2022-07-30T11:25:50.087Z,19.49
2022-07-30T11:28:45.333Z,19.47
2022-07-30T11:31:55.701Z,19.55
2022-07-30T11:34:39.256Z,19.76
2022-07-30T11:37:31.752Z,19.93
2022-07-30T11:40:26.438Z,20.21
2022-07-30T11:43:34.747Z,20.40
2022-07-30T11:46:29.272Z,20.57
2022-07-30T11:49:16.100Z,20.53
2022-07-30T11:52:02.467Z,20.61
2022-07-30T11:54:55.350Z,20.81
2022-07-30T11:57:41.966Z,20.92
2022-07-30T12:00:35.650Z,21.06
2022-07-30T12:03:24.227Z,20.99
2022-07-30T12:06:23.485Z,20.87
2022-07-30T12:09:10.328Z,20.87
2022-07-30T12:11:59.480Z,20.74
2022-07-30T12:14:46.480Z,20.61
2022-07-30T12:17:45.242Z,20.62
2022-07-30T12:20:30.623Z,20.60
2022-07-30T12:23:16.262Z,20.45
2022-07-30T12:26:07.346Z,20.41
2022-07-30T12:28:55.276Z,20.42
2022-07-30T12:31:42.024Z,20.59
2022-07-30T12:34:27.794Z,20.73
2022-07-30T12:37:13.941Z,20.85
2022-07-30T12:40:05.667Z,20.86
2022-07-30T12:42:52.086Z,20.93
2022-07-30T12:45:51.512Z,20.93
2022-07-30T12:48:51.293Z,21.00
2022-07-30T12:51:52.193Z,20.73
2022-07-30T12:54:43.420Z,20.81
2022-07-30T12:57:49.476Z,21.03
2022-07-30T13:00:44.399Z,21.26
2022-07-30T13:03:39.339Z,21.29
2022-07-30T13:06:24.698Z,21.31
2022-07-30T13:09:21.158Z,21.25
2022-07-30T13:12:07.431Z,21.28
2022-07-30T13:14:53.183Z,21.08
2022-07-30T13:17:38.797Z,20.98
2022-07-30T13:20:24.383Z,21.25
2022-07-30T13:23:10.097Z,21.62
2022-07-30T13:25:56.204Z,21.74
2022-07-30T13:28:41.687Z,21.84
2022-07-30T13:31:27.322Z,21.81
2022-07-30T13:34:28.099Z,21.75
2022-07-30T13:37:13.441Z,22.02
2022-07-30T13:39:58.788Z,22.07
2022-07-30T13:42:44.086Z,21.89
2022-07-30T13:45:30.259Z,21.78
2022-07-30T13:48:16.426Z,21.94
2022-07-30T13:51:03.094Z,22.10
2022-07-30T13:53:48.684Z,22.17
2022-07-30T13:56:34.153Z,22.07
2022-07-30T13:59:26.503Z,22.08
2022-07-30T14:02:11.698Z,22.34
2022-07-30T14:04:57.281Z,22.52
2022-07-30T14:07:43.004Z,22.65
2022-07-30T14:10:28.836Z,22.74
2022-07-30T14:13:20.767Z,22.50
2022-07-30T14:16:22.668Z,22.49
2022-07-30T14:19:22.952Z,22.26
2022-07-30T14:22:09.871Z,22.17
2022-07-30T14:24:55.138Z,22.08
2022-07-30T14:27:40.897Z,21.98
2022-07-30T14:30:26.462Z,21.81
2022-07-30T14:33:12.039Z,21.67
2022-07-30T14:35:57.654Z,21.34
2022-07-30T14:38:43.248Z,20.93
2022-07-30T14:41:28.619Z,20.70
2022-07-30T14:44:16.503Z,20.64
2022-07-30T14:47:03.386Z,20.64
2022-07-30T14:49:49.022Z,20.81
2022-07-30T14:52:35.152Z,20.97
2022-07-30T14:55:20.728Z,20.82
2022-07-30T14:58:06.226Z,20.69
2022-07-30T15:00:51.923Z,20.58
2022-07-30T15:03:37.284Z,20.59
2022-07-30T15:06:23.471Z,20.67
2022-07-30T15:09:10.078Z,20.81
2022-07-30T15:12:09.459Z,20.99
2022-07-30T15:14:55.561Z,21.03
2022-07-30T15:17:41.181Z,20.87
2022-07-30T15:20:26.631Z,20.75
2022-07-30T15:23:13.573Z,20.75
2022-07-30T15:25:59.393Z,20.84
2022-07-30T15:28:45.039Z,20.74
2022-07-30T15:31:30.289Z,20.76
2022-07-30T15:34:16.288Z,20.58
2022-07-30T15:37:06.466Z,20.54
2022-07-30T15:39:51.742Z,20.62
2022-07-30T15:42:37.165Z,20.70
2022-07-30T15:45:24.811Z,20.63
2022-07-30T15:48:10.444Z,20.52
2022-07-30T15:51:04.889Z,20.38
2022-07-30T15:53:50.230Z,20.18
2022-07-30T15:56:35.627Z,20.04
2022-07-30T15:59:21.666Z,19.90
2022-07-30T16:02:07.515Z,19.81
2022-07-30T16:04:53.169Z,19.82
2022-07-30T16:07:38.505Z,19.68
2022-07-30T16:10:24.050Z,19.60
2022-07-30T16:13:09.490Z,19.57
2022-07-30T16:15:54.956Z,19.45
2022-07-30T16:18:40.239Z,19.44
2022-07-30T16:21:25.570Z,19.41
2022-07-30T16:24:11.012Z,19.37
2022-07-30T16:26:56.213Z,19.34
2022-07-30T16:29:41.746Z,19.27
2022-07-30T16:32:27.108Z,19.20
2022-07-30T16:35:13.447Z,19.17
2022-07-30T16:38:02.835Z,19.20
2022-07-30T16:40:48.488Z,19.20
2022-07-30T16:43:33.805Z,-146.56
2022-07-30T16:46:19.457Z,-146.56
2022-07-30T16:49:05.513Z,-146.56
2022-07-30T16:51:51.170Z,-146.56
2022-07-30T16:54:36.538Z,-146.56
2022-07-30T16:57:21.872Z,-146.56
2022-07-30T17:00:08.863Z,-146.56
2022-07-30T17:02:54.414Z,-146.56
2022-07-30T17:05:45.039Z,-146.56
2022-07-30T17:08:31.173Z,-146.56
2022-07-30T17:11:47.301Z,-146.56
2022-07-30T17:14:22.488Z,-146.56
2022-07-30T17:17:13.749Z,-146.56
2022-07-30T17:20:03.981Z,-146.56
2022-07-30T17:22:49.537Z,-146.56
2022-07-30T17:25:34.792Z,-146.56
2022-07-30T17:28:26.996Z,-146.56
2022-07-30T17:31:13.316Z,-146.56
2022-07-30T17:33:58.856Z,-146.56
2022-07-30T17:36:51.674Z,-146.56
2022-07-30T17:40:04.020Z,-146.56
2022-07-30T17:42:46.978Z,-146.56
2022-07-30T17:45:33.804Z,-146.56
2022-07-30T17:48:20.483Z,-146.56
2022-07-30T17:51:05.767Z,-146.56
2022-07-30T17:53:51.351Z,-146.56
2022-07-30T17:56:38.010Z,-146.56
2022-07-30T17:59:23.711Z,-146.56
2022-07-30T18:02:09.783Z,-146.56
2022-07-30T18:04:56.555Z,-146.56
2022-07-30T18:07:43.719Z,-146.56
2022-07-30T18:10:29.135Z,-146.56
2022-07-30T18:13:22.475Z,-146.56
2022-07-30T18:16:12.818Z,-146.56
2022-07-30T18:18:58.367Z,-146.56
2022-07-30T18:21:44.088Z,-146.56
2022-07-30T18:24:32.031Z,-146.56
2022-07-30T18:27:17.991Z,-146.56
2022-07-30T18:30:04.543Z,-146.56
2022-07-30T18:32:50.885Z,-146.56
2022-07-30T18:35:37.528Z,-146.56
2022-07-30T18:38:23.267Z,-146.56
2022-07-30T18:41:08.691Z,-146.56
2022-07-30T18:43:53.960Z,-146.56
2022-07-30T18:46:39.606Z,-146.56
2022-07-30T18:49:40.387Z,-146.56
2022-07-30T18:52:26.645Z,-146.56
2022-07-30T18:55:12.593Z,-146.56
2022-07-30T18:57:58.171Z,-146.56
2022-07-30T19:00:44.336Z,-146.56
2022-07-30T19:03:30.499Z,-146.56
2022-07-30T19:06:16.538Z,-146.56
2022-07-30T19:09:01.864Z,-146.56
2022-07-30T19:11:47.177Z,-146.56
2022-07-30T19:14:32.717Z,-146.56
2022-07-30T19:17:18.181Z,-146.56
2022-07-30T19:20:05.567Z,-146.56
2022-07-30T19:22:51.681Z,-146.56
2022-07-30T19:25:37.438Z,-146.56
2022-07-30T19:28:22.771Z,-146.56
2022-07-30T19:31:08.390Z,-146.56
2022-07-30T19:33:54.243Z,-146.56
2022-07-30T19:36:40.025Z,-146.56
2022-07-30T19:39:25.607Z,-146.56
2022-07-30T19:42:12.573Z,-146.56
2022-07-30T19:45:01.371Z,-146.56
2022-07-30T19:47:57.417Z,-146.56
2022-07-30T19:50:43.087Z,-146.56
2022-07-30T19:53:31.212Z,-146.56
2022-07-30T19:56:17.584Z,-146.56
2022-07-30T19:59:14.867Z,-146.56
2022-07-30T20:02:00.889Z,-146.56
2022-07-30T20:04:46.895Z,-146.56
2022-07-30T20:07:32.846Z,-146.56
2022-07-30T20:10:21.437Z,-146.56
2022-07-30T20:13:06.881Z,-146.56
2022-07-30T20:15:53.484Z,-146.56
2022-07-30T20:18:40.579Z,-146.56
2022-07-30T20:21:56.643Z,-146.56
2022-07-30T20:24:31.810Z,-146.56
2022-07-30T20:27:37.327Z,-146.56
2022-07-30T20:30:25.015Z,-146.56
2022-07-30T20:33:11.501Z,-146.56
2022-07-30T20:35:58.184Z,-146.56
2022-07-30T20:38:47.206Z,-146.56
2022-07-30T20:41:32.975Z,-146.56
2022-07-30T20:44:23.514Z,-146.56
2022-07-30T20:47:11.895Z,-146.56
2022-07-30T20:49:57.720Z,-146.56
2022-07-30T20:52:46.770Z,-146.56
2022-07-30T20:55:33.751Z,-146.56
2022-07-30T20:58:22.572Z,-146.56
2022-07-30T21:01:08.581Z,-146.56
2022-07-30T21:04:02.954Z,-146.56
2022-07-30T21:06:50.398Z,-146.56
2022-07-30T21:09:51.885Z,-146.56
2022-07-30T21:12:39.465Z,-146.56
2022-07-30T21:15:25.081Z,-146.56
2022-07-30T21:18:12.108Z,-146.56
2022-07-30T21:20:58.040Z,-146.56
2022-07-30T21:23:46.183Z,-146.56
2022-07-30T21:26:31.844Z,-146.56
2022-07-30T21:29:19.069Z,-146.56
2022-07-30T21:32:05.068Z,-146.56
2022-07-30T21:34:50.764Z,-146.56
2022-07-30T21:37:37.106Z,-146.56
2022-07-30T21:40:24.584Z,-146.56
2022-07-30T21:43:10.660Z,-146.56
2022-07-30T21:45:57.560Z,-146.56
2022-07-30T21:48:45.664Z,-146.56
2022-07-30T21:51:31.328Z,-146.56
2022-07-30T21:54:29.428Z,-146.56
2022-07-30T21:57:26.467Z,-146.56
2022-07-30T22:00:58.618Z,-146.56
2022-07-30T22:04:03.414Z,-146.56
2022-07-30T22:06:49.981Z,-146.56
2022-07-30T22:09:35.430Z,-146.56
2022-07-30T22:12:22.016Z,-146.56
2022-07-30T22:15:15.139Z,-146.56
2022-07-30T22:18:01.133Z,-146.56
2022-07-30T22:20:46.843Z,-146.56
2022-07-30T22:23:32.406Z,-146.56
2022-07-30T22:26:18.358Z,-146.56
2022-07-30T22:29:03.956Z,-146.56
2022-07-30T22:31:50.469Z,-146.56
2022-07-30T22:34:35.915Z,-146.56
2022-07-30T22:37:21.812Z,-146.56
2022-07-30T22:40:08.113Z,-146.56
2022-07-30T22:42:54.184Z,-146.56
2022-07-30T22:45:48.846Z,-146.56
2022-07-30T22:48:34.870Z,-146.56
2022-07-30T22:51:21.234Z,-146.56
2022-07-30T22:54:12.532Z,-146.56
2022-07-30T23:00:07.149Z,-146.56
2022-07-30T23:02:58.224Z,-146.56
2022-07-30T23:05:55.118Z,-146.56
2022-07-30T23:08:42.139Z,-146.56
2022-07-30T23:12:31.099Z,-146.56
2022-07-30T23:12:34.086Z,-146.56
2022-07-30T23:14:33.007Z,-146.56
2022-07-30T23:17:18.144Z,-146.56
2022-07-30T23:20:08.747Z,-146.56
2022-07-30T23:22:54.374Z,-146.56
2022-07-30T23:25:40.730Z,-146.56
2022-07-30T23:28:26.371Z,-146.56
2022-07-30T23:31:12.009Z,-146.56
2022-07-30T23:33:57.465Z,-146.56
2022-07-30T23:36:42.871Z,-146.56
2022-07-30T23:39:28.621Z,-146.56
2022-07-30T23:42:15.224Z,-146.56
2022-07-30T23:45:00.682Z,-146.56
2022-07-30T23:48:00.219Z,-146.56
2022-07-30T23:50:47.895Z,-146.56
2022-07-30T23:53:32.985Z,-146.56
2022-07-30T23:56:18.312Z,-146.56
2022-07-30T23:59:03.680Z,-146.56
